sensor_id;sensor_type;location;lat;lon;timestamp;temperature;humidity
20492;DHT22;10404;51.468;6.762;2024-03-06T00:00:28;5.50;76.90
20492;DHT22;10404;51.468;6.762;2024-03-06T00:02:53;5.40;76.90
20492;DHT22;10404;51.468;6.762;2024-03-06T00:05:20;5.40;76.90
20492;DHT22;10404;51.468;6.762;2024-03-06T00:07:46;5.40;76.90
20492;DHT22;10404;51.468;6.762;2024-03-06T00:10:11;5.40;76.90
20492;DHT22;10404;51.468;6.762;2024-03-06T00:12:37;5.30;76.90
20492;DHT22;10404;51.468;6.762;2024-03-06T00:15:02;5.30;76.90
20492;DHT22;10404;51.468;6.762;2024-03-06T00:17:28;5.30;76.80
20492;DHT22;10404;51.468;6.762;2024-03-06T00:19:54;5.30;76.90
20492;DHT22;10404;51.468;6.762;2024-03-06T00:22:19;5.30;76.90
20492;DHT22;10404;51.468;6.762;2024-03-06T00:24:45;5.30;76.80
20492;DHT22;10404;51.468;6.762;2024-03-06T00:27:13;5.30;76.90
20492;DHT22;10404;51.468;6.762;2024-03-06T00:29:39;5.20;76.90
20492;DHT22;10404;51.468;6.762;2024-03-06T00:32:04;5.20;76.90
20492;DHT22;10404;51.468;6.762;2024-03-06T00:34:30;5.20;76.90
20492;DHT22;10404;51.468;6.762;2024-03-06T00:36:55;5.20;76.90
20492;DHT22;10404;51.468;6.762;2024-03-06T00:39:21;5.10;76.90
20492;DHT22;10404;51.468;6.762;2024-03-06T00:41:47;5.10;76.90
20492;DHT22;10404;51.468;6.762;2024-03-06T00:44:13;5.10;76.90
20492;DHT22;10404;51.468;6.762;2024-03-06T00:46:38;5.10;76.90
20492;DHT22;10404;51.468;6.762;2024-03-06T00:49:04;5.00;76.90
20492;DHT22;10404;51.468;6.762;2024-03-06T00:51:30;5.10;76.80
20492;DHT22;10404;51.468;6.762;2024-03-06T00:53:56;5.00;76.80
20492;DHT22;10404;51.468;6.762;2024-03-06T00:56:22;5.00;76.80
20492;DHT22;10404;51.468;6.762;2024-03-06T00:58:47;5.00;76.80
20492;DHT22;10404;51.468;6.762;2024-03-06T01:01:14;5.00;76.80
20492;DHT22;10404;51.468;6.762;2024-03-06T01:03:40;5.00;76.80
20492;DHT22;10404;51.468;6.762;2024-03-06T01:06:05;5.00;76.80
20492;DHT22;10404;51.468;6.762;2024-03-06T01:08:31;5.00;76.80
20492;DHT22;10404;51.468;6.762;2024-03-06T01:10:57;4.90;76.80
20492;DHT22;10404;51.468;6.762;2024-03-06T01:13:23;4.90;76.80
20492;DHT22;10404;51.468;6.762;2024-03-06T01:15:49;4.90;76.80
20492;DHT22;10404;51.468;6.762;2024-03-06T01:18:14;4.90;76.80
20492;DHT22;10404;51.468;6.762;2024-03-06T01:20:40;4.90;76.80
20492;DHT22;10404;51.468;6.762;2024-03-06T01:23:05;4.90;76.90
20492;DHT22;10404;51.468;6.762;2024-03-06T01:25:31;4.80;76.80
20492;DHT22;10404;51.468;6.762;2024-03-06T01:27:57;4.80;76.80
20492;DHT22;10404;51.468;6.762;2024-03-06T01:30:22;4.70;76.80
20492;DHT22;10404;51.468;6.762;2024-03-06T01:32:48;4.70;76.70
20492;DHT22;10404;51.468;6.762;2024-03-06T01:35:14;4.70;76.70
20492;DHT22;10404;51.468;6.762;2024-03-06T01:37:39;4.70;76.80
20492;DHT22;10404;51.468;6.762;2024-03-06T01:40:05;4.70;76.80
20492;DHT22;10404;51.468;6.762;2024-03-06T01:42:32;4.70;76.70
20492;DHT22;10404;51.468;6.762;2024-03-06T01:44:58;4.70;76.70
20492;DHT22;10404;51.468;6.762;2024-03-06T01:47:24;4.60;76.80
20492;DHT22;10404;51.468;6.762;2024-03-06T01:49:50;4.60;76.80
20492;DHT22;10404;51.468;6.762;2024-03-06T01:52:16;4.50;76.80
20492;DHT22;10404;51.468;6.762;2024-03-06T01:54:43;4.50;76.80
20492;DHT22;10404;51.468;6.762;2024-03-06T01:57:11;4.50;76.80
20492;DHT22;10404;51.468;6.762;2024-03-06T01:59:38;4.50;76.80
20492;DHT22;10404;51.468;6.762;2024-03-06T02:02:05;4.50;76.80
20492;DHT22;10404;51.468;6.762;2024-03-06T02:04:32;4.50;76.70
20492;DHT22;10404;51.468;6.762;2024-03-06T02:06:57;4.50;76.70
20492;DHT22;10404;51.468;6.762;2024-03-06T02:09:23;4.50;76.80
20492;DHT22;10404;51.468;6.762;2024-03-06T02:11:49;4.50;76.80
20492;DHT22;10404;51.468;6.762;2024-03-06T02:14:15;4.40;76.70
20492;DHT22;10404;51.468;6.762;2024-03-06T02:16:41;4.40;76.80
20492;DHT22;10404;51.468;6.762;2024-03-06T02:19:08;4.40;76.70
20492;DHT22;10404;51.468;6.762;2024-03-06T02:21:33;4.40;76.80
20492;DHT22;10404;51.468;6.762;2024-03-06T02:23:59;4.30;76.80
20492;DHT22;10404;51.468;6.762;2024-03-06T02:26:25;4.40;76.80
20492;DHT22;10404;51.468;6.762;2024-03-06T02:28:52;4.30;76.80
20492;DHT22;10404;51.468;6.762;2024-03-06T02:31:19;4.30;76.70
20492;DHT22;10404;51.468;6.762;2024-03-06T02:33:47;4.30;76.70
20492;DHT22;10404;51.468;6.762;2024-03-06T02:36:13;4.30;76.70
20492;DHT22;10404;51.468;6.762;2024-03-06T02:38:39;4.30;76.70
20492;DHT22;10404;51.468;6.762;2024-03-06T02:41:05;4.30;76.70
20492;DHT22;10404;51.468;6.762;2024-03-06T02:43:32;4.20;76.70
20492;DHT22;10404;51.468;6.762;2024-03-06T02:45:58;4.20;76.70
20492;DHT22;10404;51.468;6.762;2024-03-06T02:48:24;4.20;76.70
20492;DHT22;10404;51.468;6.762;2024-03-06T02:50:49;4.20;76.70
20492;DHT22;10404;51.468;6.762;2024-03-06T02:53:15;4.20;76.70
20492;DHT22;10404;51.468;6.762;2024-03-06T02:55:40;4.20;76.70
20492;DHT22;10404;51.468;6.762;2024-03-06T02:58:06;4.20;76.70
20492;DHT22;10404;51.468;6.762;2024-03-06T03:00:31;4.10;76.70
20492;DHT22;10404;51.468;6.762;2024-03-06T03:02:57;4.10;76.70
20492;DHT22;10404;51.468;6.762;2024-03-06T03:05:23;4.10;76.70
20492;DHT22;10404;51.468;6.762;2024-03-06T03:07:49;4.10;76.70
20492;DHT22;10404;51.468;6.762;2024-03-06T03:10:15;4.00;76.70
20492;DHT22;10404;51.468;6.762;2024-03-06T03:12:41;4.00;76.70
20492;DHT22;10404;51.468;6.762;2024-03-06T03:15:07;4.00;76.70
20492;DHT22;10404;51.468;6.762;2024-03-06T03:17:33;4.00;76.70
20492;DHT22;10404;51.468;6.762;2024-03-06T03:20:02;4.00;76.60
20492;DHT22;10404;51.468;6.762;2024-03-06T03:22:39;4.00;76.70
20492;DHT22;10404;51.468;6.762;2024-03-06T03:25:11;4.00;76.70
20492;DHT22;10404;51.468;6.762;2024-03-06T03:27:38;3.90;76.70
20492;DHT22;10404;51.468;6.762;2024-03-06T03:30:07;3.90;76.70
20492;DHT22;10404;51.468;6.762;2024-03-06T03:32:34;3.90;76.70
20492;DHT22;10404;51.468;6.762;2024-03-06T03:34:59;3.90;76.70
20492;DHT22;10404;51.468;6.762;2024-03-06T03:37:25;3.90;76.60
20492;DHT22;10404;51.468;6.762;2024-03-06T03:39:50;3.90;76.60
20492;DHT22;10404;51.468;6.762;2024-03-06T03:42:16;3.90;76.60
20492;DHT22;10404;51.468;6.762;2024-03-06T03:44:41;3.90;76.60
20492;DHT22;10404;51.468;6.762;2024-03-06T03:47:07;3.90;76.60
20492;DHT22;10404;51.468;6.762;2024-03-06T03:49:32;3.80;76.60
20492;DHT22;10404;51.468;6.762;2024-03-06T03:51:59;3.80;76.60
20492;DHT22;10404;51.468;6.762;2024-03-06T03:54:24;3.80;76.60
20492;DHT22;10404;51.468;6.762;2024-03-06T03:56:50;3.70;76.60
20492;DHT22;10404;51.468;6.762;2024-03-06T03:59:15;3.70;76.60
20492;DHT22;10404;51.468;6.762;2024-03-06T04:01:41;3.70;76.60
20492;DHT22;10404;51.468;6.762;2024-03-06T04:04:06;3.70;76.60
20492;DHT22;10404;51.468;6.762;2024-03-06T04:06:33;3.70;76.70
20492;DHT22;10404;51.468;6.762;2024-03-06T04:08:59;3.60;76.60
20492;DHT22;10404;51.468;6.762;2024-03-06T04:11:24;3.60;76.60
20492;DHT22;10404;51.468;6.762;2024-03-06T04:13:50;3.60;76.60
20492;DHT22;10404;51.468;6.762;2024-03-06T04:16:16;3.60;76.60
20492;DHT22;10404;51.468;6.762;2024-03-06T04:18:43;3.60;76.60
20492;DHT22;10404;51.468;6.762;2024-03-06T04:21:08;3.60;76.60
20492;DHT22;10404;51.468;6.762;2024-03-06T04:23:36;3.50;76.50
20492;DHT22;10404;51.468;6.762;2024-03-06T04:26:01;3.50;76.50
20492;DHT22;10404;51.468;6.762;2024-03-06T04:28:27;3.50;76.60
20492;DHT22;10404;51.468;6.762;2024-03-06T04:30:53;3.50;76.50
20492;DHT22;10404;51.468;6.762;2024-03-06T04:33:19;3.50;76.60
20492;DHT22;10404;51.468;6.762;2024-03-06T04:35:45;3.50;76.50
20492;DHT22;10404;51.468;6.762;2024-03-06T04:38:11;3.50;76.60
20492;DHT22;10404;51.468;6.762;2024-03-06T04:40:36;3.40;76.60
20492;DHT22;10404;51.468;6.762;2024-03-06T04:43:02;3.40;76.50
20492;DHT22;10404;51.468;6.762;2024-03-06T04:45:27;3.40;76.50
20492;DHT22;10404;51.468;6.762;2024-03-06T04:47:56;3.40;76.60
20492;DHT22;10404;51.468;6.762;2024-03-06T04:50:21;3.40;76.50
20492;DHT22;10404;51.468;6.762;2024-03-06T04:52:47;3.30;76.50
20492;DHT22;10404;51.468;6.762;2024-03-06T04:55:13;3.30;76.50
20492;DHT22;10404;51.468;6.762;2024-03-06T04:57:43;3.30;76.50
20492;DHT22;10404;51.468;6.762;2024-03-06T05:00:10;3.30;76.50
20492;DHT22;10404;51.468;6.762;2024-03-06T05:02:35;3.30;76.50
20492;DHT22;10404;51.468;6.762;2024-03-06T05:05:02;3.30;76.50
20492;DHT22;10404;51.468;6.762;2024-03-06T05:07:29;3.30;76.50
20492;DHT22;10404;51.468;6.762;2024-03-06T05:09:55;3.30;76.50
20492;DHT22;10404;51.468;6.762;2024-03-06T05:12:25;3.20;76.50
20492;DHT22;10404;51.468;6.762;2024-03-06T05:14:55;3.20;76.50
20492;DHT22;10404;51.468;6.762;2024-03-06T05:17:20;3.20;76.40
20492;DHT22;10404;51.468;6.762;2024-03-06T05:19:46;3.10;76.40
20492;DHT22;10404;51.468;6.762;2024-03-06T05:22:13;3.10;76.50
20492;DHT22;10404;51.468;6.762;2024-03-06T05:24:39;3.10;76.40
20492;DHT22;10404;51.468;6.762;2024-03-06T05:27:05;3.10;76.40
20492;DHT22;10404;51.468;6.762;2024-03-06T05:29:30;3.10;76.50
20492;DHT22;10404;51.468;6.762;2024-03-06T05:31:56;3.10;76.40
20492;DHT22;10404;51.468;6.762;2024-03-06T05:34:24;3.10;76.40
20492;DHT22;10404;51.468;6.762;2024-03-06T05:36:50;3.10;76.40
20492;DHT22;10404;51.468;6.762;2024-03-06T05:39:16;3.10;76.50
20492;DHT22;10404;51.468;6.762;2024-03-06T05:41:43;3.10;76.50
20492;DHT22;10404;51.468;6.762;2024-03-06T05:44:08;3.00;76.50
20492;DHT22;10404;51.468;6.762;2024-03-06T05:46:34;3.00;76.40
20492;DHT22;10404;51.468;6.762;2024-03-06T05:48:59;3.00;76.40
20492;DHT22;10404;51.468;6.762;2024-03-06T05:51:26;3.00;76.50
20492;DHT22;10404;51.468;6.762;2024-03-06T05:53:53;3.00;76.40
20492;DHT22;10404;51.468;6.762;2024-03-06T05:56:18;3.00;76.40
20492;DHT22;10404;51.468;6.762;2024-03-06T05:58:44;2.90;76.50
20492;DHT22;10404;51.468;6.762;2024-03-06T06:01:12;2.90;76.50
20492;DHT22;10404;51.468;6.762;2024-03-06T06:03:39;2.90;76.50
20492;DHT22;10404;51.468;6.762;2024-03-06T06:06:05;2.90;76.40
20492;DHT22;10404;51.468;6.762;2024-03-06T06:08:30;2.90;76.40
20492;DHT22;10404;51.468;6.762;2024-03-06T06:10:57;2.90;76.40
20492;DHT22;10404;51.468;6.762;2024-03-06T06:13:22;2.90;76.40
20492;DHT22;10404;51.468;6.762;2024-03-06T06:15:48;2.80;76.40
20492;DHT22;10404;51.468;6.762;2024-03-06T06:18:13;2.80;76.40
20492;DHT22;10404;51.468;6.762;2024-03-06T06:20:41;2.80;76.50
20492;DHT22;10404;51.468;6.762;2024-03-06T06:23:07;2.80;76.50
20492;DHT22;10404;51.468;6.762;2024-03-06T06:25:33;2.80;76.40
20492;DHT22;10404;51.468;6.762;2024-03-06T06:27:58;2.80;76.40
20492;DHT22;10404;51.468;6.762;2024-03-06T06:30:24;2.80;76.40
20492;DHT22;10404;51.468;6.762;2024-03-06T06:32:50;2.80;76.50
20492;DHT22;10404;51.468;6.762;2024-03-06T06:35:15;2.80;76.50
20492;DHT22;10404;51.468;6.762;2024-03-06T06:37:41;2.70;76.50
20492;DHT22;10404;51.468;6.762;2024-03-06T06:40:07;2.70;76.50
20492;DHT22;10404;51.468;6.762;2024-03-06T06:42:34;2.70;76.50
20492;DHT22;10404;51.468;6.762;2024-03-06T06:45:00;2.70;76.50
20492;DHT22;10404;51.468;6.762;2024-03-06T06:47:26;2.70;76.60
20492;DHT22;10404;51.468;6.762;2024-03-06T06:49:52;2.70;76.60
20492;DHT22;10404;51.468;6.762;2024-03-06T06:52:17;2.70;76.60
20492;DHT22;10404;51.468;6.762;2024-03-06T06:54:43;2.70;76.50
20492;DHT22;10404;51.468;6.762;2024-03-06T06:57:08;2.70;76.60
20492;DHT22;10404;51.468;6.762;2024-03-06T06:59:34;2.70;76.60
20492;DHT22;10404;51.468;6.762;2024-03-06T07:02:00;2.70;76.60
20492;DHT22;10404;51.468;6.762;2024-03-06T07:04:26;2.70;76.60
20492;DHT22;10404;51.468;6.762;2024-03-06T07:06:51;2.70;76.60
20492;DHT22;10404;51.468;6.762;2024-03-06T07:09:17;2.70;76.60
20492;DHT22;10404;51.468;6.762;2024-03-06T07:11:43;2.70;76.60
20492;DHT22;10404;51.468;6.762;2024-03-06T07:14:11;2.70;76.60
20492;DHT22;10404;51.468;6.762;2024-03-06T07:16:47;2.70;76.60
20492;DHT22;10404;51.468;6.762;2024-03-06T07:19:12;2.70;76.50
20492;DHT22;10404;51.468;6.762;2024-03-06T07:21:38;2.70;76.50
20492;DHT22;10404;51.468;6.762;2024-03-06T07:24:05;2.70;76.50
20492;DHT22;10404;51.468;6.762;2024-03-06T07:26:33;2.70;76.50
20492;DHT22;10404;51.468;6.762;2024-03-06T07:28:59;2.70;76.60
20492;DHT22;10404;51.468;6.762;2024-03-06T07:31:25;2.70;76.60
20492;DHT22;10404;51.468;6.762;2024-03-06T07:33:51;2.70;76.50
20492;DHT22;10404;51.468;6.762;2024-03-06T07:36:16;2.80;76.50
20492;DHT22;10404;51.468;6.762;2024-03-06T07:38:42;2.80;76.50
20492;DHT22;10404;51.468;6.762;2024-03-06T07:41:08;2.80;76.40
20492;DHT22;10404;51.468;6.762;2024-03-06T07:43:35;2.80;76.50
20492;DHT22;10404;51.468;6.762;2024-03-06T07:46:00;2.80;76.90
20492;DHT22;10404;51.468;6.762;2024-03-06T07:48:26;2.70;77.20
20492;DHT22;10404;51.468;6.762;2024-03-06T07:50:51;2.70;77.40
20492;DHT22;10404;51.468;6.762;2024-03-06T07:53:17;2.80;77.40
20492;DHT22;10404;51.468;6.762;2024-03-06T07:55:43;2.80;77.50
20492;DHT22;10404;51.468;6.762;2024-03-06T07:58:09;2.80;77.50
20492;DHT22;10404;51.468;6.762;2024-03-06T08:00:35;2.90;77.50
20492;DHT22;10404;51.468;6.762;2024-03-06T08:03:01;2.90;77.50
20492;DHT22;10404;51.468;6.762;2024-03-06T08:05:28;3.00;77.50
20492;DHT22;10404;51.468;6.762;2024-03-06T08:07:53;3.10;77.40
20492;DHT22;10404;51.468;6.762;2024-03-06T08:10:19;3.10;77.30
20492;DHT22;10404;51.468;6.762;2024-03-06T08:12:45;3.30;77.20
20492;DHT22;10404;51.468;6.762;2024-03-06T08:15:13;3.40;77.00
20492;DHT22;10404;51.468;6.762;2024-03-06T08:17:40;3.50;76.90
20492;DHT22;10404;51.468;6.762;2024-03-06T08:20:09;3.60;76.70
20492;DHT22;10404;51.468;6.762;2024-03-06T08:22:39;3.60;76.70
20492;DHT22;10404;51.468;6.762;2024-03-06T08:25:08;3.70;76.70
20492;DHT22;10404;51.468;6.762;2024-03-06T08:27:34;3.70;76.70
20492;DHT22;10404;51.468;6.762;2024-03-06T08:30:00;3.70;76.90
20492;DHT22;10404;51.468;6.762;2024-03-06T08:32:26;3.70;77.00
20492;DHT22;10404;51.468;6.762;2024-03-06T08:34:52;3.70;77.10
20492;DHT22;10404;51.468;6.762;2024-03-06T08:37:18;3.70;77.20
20492;DHT22;10404;51.468;6.762;2024-03-06T08:39:44;3.70;77.70
20492;DHT22;10404;51.468;6.762;2024-03-06T08:42:10;3.70;77.90
20492;DHT22;10404;51.468;6.762;2024-03-06T08:44:37;3.70;78.10
20492;DHT22;10404;51.468;6.762;2024-03-06T08:47:03;3.80;78.10
20492;DHT22;10404;51.468;6.762;2024-03-06T08:49:28;3.90;78.20
20492;DHT22;10404;51.468;6.762;2024-03-06T08:51:54;3.90;78.30
20492;DHT22;10404;51.468;6.762;2024-03-06T08:54:20;3.90;78.50
20492;DHT22;10404;51.468;6.762;2024-03-06T08:56:46;3.90;78.70
20492;DHT22;10404;51.468;6.762;2024-03-06T08:59:11;4.00;78.90
20492;DHT22;10404;51.468;6.762;2024-03-06T09:01:37;4.00;78.90
20492;DHT22;10404;51.468;6.762;2024-03-06T09:04:02;4.10;79.00
20492;DHT22;10404;51.468;6.762;2024-03-06T09:06:28;4.10;79.20
20492;DHT22;10404;51.468;6.762;2024-03-06T09:08:53;4.20;79.60
20492;DHT22;10404;51.468;6.762;2024-03-06T09:11:19;4.20;79.80
20492;DHT22;10404;51.468;6.762;2024-03-06T09:13:44;4.20;79.90
20492;DHT22;10404;51.468;6.762;2024-03-06T09:16:10;4.20;80.10
20492;DHT22;10404;51.468;6.762;2024-03-06T09:18:35;4.30;80.30
20492;DHT22;10404;51.468;6.762;2024-03-06T09:21:01;4.30;80.70
20492;DHT22;10404;51.468;6.762;2024-03-06T09:23:27;4.30;80.20
20492;DHT22;10404;51.468;6.762;2024-03-06T09:25:55;4.30;80.40
20492;DHT22;10404;51.468;6.762;2024-03-06T09:28:20;4.40;80.40
20492;DHT22;10404;51.468;6.762;2024-03-06T09:30:46;4.50;81.00
20492;DHT22;10404;51.468;6.762;2024-03-06T09:33:12;4.50;80.90
20492;DHT22;10404;51.468;6.762;2024-03-06T09:35:38;4.50;81.00
20492;DHT22;10404;51.468;6.762;2024-03-06T09:38:03;4.60;81.00
20492;DHT22;10404;51.468;6.762;2024-03-06T09:40:29;4.70;81.40
20492;DHT22;10404;51.468;6.762;2024-03-06T09:42:55;4.70;80.40
20492;DHT22;10404;51.468;6.762;2024-03-06T09:45:20;4.80;81.00
20492;DHT22;10404;51.468;6.762;2024-03-06T09:47:47;4.90;81.50
20492;DHT22;10404;51.468;6.762;2024-03-06T09:50:16;4.90;81.30
20492;DHT22;10404;51.468;6.762;2024-03-06T09:52:42;5.00;80.80
20492;DHT22;10404;51.468;6.762;2024-03-06T09:55:10;5.00;80.20
20492;DHT22;10404;51.468;6.762;2024-03-06T09:57:38;5.00;80.30
20492;DHT22;10404;51.468;6.762;2024-03-06T10:00:05;5.10;80.70
20492;DHT22;10404;51.468;6.762;2024-03-06T10:02:37;5.10;80.60
20492;DHT22;10404;51.468;6.762;2024-03-06T10:05:03;5.20;80.60
20492;DHT22;10404;51.468;6.762;2024-03-06T10:07:31;5.20;80.20
20492;DHT22;10404;51.468;6.762;2024-03-06T10:09:56;5.30;80.80
20492;DHT22;10404;51.468;6.762;2024-03-06T10:12:22;5.30;80.80
20492;DHT22;10404;51.468;6.762;2024-03-06T10:14:49;5.40;80.60
20492;DHT22;10404;51.468;6.762;2024-03-06T10:17:19;5.50;80.50
20492;DHT22;10404;51.468;6.762;2024-03-06T10:19:48;5.50;80.30
20492;DHT22;10404;51.468;6.762;2024-03-06T10:22:17;5.50;80.40
20492;DHT22;10404;51.468;6.762;2024-03-06T10:24:42;5.60;80.50
20492;DHT22;10404;51.468;6.762;2024-03-06T10:27:17;5.60;80.70
20492;DHT22;10404;51.468;6.762;2024-03-06T10:29:43;5.70;80.80
20492;DHT22;10404;51.468;6.762;2024-03-06T10:32:08;5.80;80.80
20492;DHT22;10404;51.468;6.762;2024-03-06T10:34:36;5.80;80.10
20492;DHT22;10404;51.468;6.762;2024-03-06T10:37:03;5.90;80.60
20492;DHT22;10404;51.468;6.762;2024-03-06T10:39:36;5.90;80.50
20492;DHT22;10404;51.468;6.762;2024-03-06T10:42:07;6.00;80.80
20492;DHT22;10404;51.468;6.762;2024-03-06T10:44:34;6.10;80.80
20492;DHT22;10404;51.468;6.762;2024-03-06T10:47:02;6.20;80.70
20492;DHT22;10404;51.468;6.762;2024-03-06T10:49:28;6.30;80.60
20492;DHT22;10404;51.468;6.762;2024-03-06T10:52:02;6.40;80.50
20492;DHT22;10404;51.468;6.762;2024-03-06T10:54:31;6.50;80.70
20492;DHT22;10404;51.468;6.762;2024-03-06T10:56:57;6.50;80.80
20492;DHT22;10404;51.468;6.762;2024-03-06T10:59:25;6.60;80.50
20492;DHT22;10404;51.468;6.762;2024-03-06T11:01:55;6.70;80.90
20492;DHT22;10404;51.468;6.762;2024-03-06T11:04:31;6.80;79.80
20492;DHT22;10404;51.468;6.762;2024-03-06T11:07:02;6.80;80.10
20492;DHT22;10404;51.468;6.762;2024-03-06T11:09:28;6.90;79.60
20492;DHT22;10404;51.468;6.762;2024-03-06T11:11:57;7.00;79.60
20492;DHT22;10404;51.468;6.762;2024-03-06T11:14:23;7.00;79.60
20492;DHT22;10404;51.468;6.762;2024-03-06T11:17:03;7.00;80.00
20492;DHT22;10404;51.468;6.762;2024-03-06T11:19:30;7.20;80.50
20492;DHT22;10404;51.468;6.762;2024-03-06T11:21:56;7.20;80.40
20492;DHT22;10404;51.468;6.762;2024-03-06T11:24:23;7.30;79.50
20492;DHT22;10404;51.468;6.762;2024-03-06T11:29:18;7.50;79.50
20492;DHT22;10404;51.468;6.762;2024-03-06T11:32:05;7.50;78.50
20492;DHT22;10404;51.468;6.762;2024-03-06T11:34:36;7.50;78.30
20492;DHT22;10404;51.468;6.762;2024-03-06T11:37:06;7.50;78.10
20492;DHT22;10404;51.468;6.762;2024-03-06T11:39:35;7.60;78.00
20492;DHT22;10404;51.468;6.762;2024-03-06T11:42:02;7.60;77.10
20492;DHT22;10404;51.468;6.762;2024-03-06T11:44:28;7.70;77.90
20492;DHT22;10404;51.468;6.762;2024-03-06T11:47:05;7.80;77.00
20492;DHT22;10404;51.468;6.762;2024-03-06T11:49:32;7.80;77.50
20492;DHT22;10404;51.468;6.762;2024-03-06T11:52:04;7.80;76.80
20492;DHT22;10404;51.468;6.762;2024-03-06T11:54:31;7.80;77.20
20492;DHT22;10404;51.468;6.762;2024-03-06T11:57:00;7.90;76.80
20492;DHT22;10404;51.468;6.762;2024-03-06T11:59:27;8.00;77.00
20492;DHT22;10404;51.468;6.762;2024-03-06T12:01:54;8.00;77.60
20492;DHT22;10404;51.468;6.762;2024-03-06T12:04:20;8.00;76.80
20492;DHT22;10404;51.468;6.762;2024-03-06T12:06:46;8.10;77.00
20492;DHT22;10404;51.468;6.762;2024-03-06T12:09:12;8.10;76.80
20492;DHT22;10404;51.468;6.762;2024-03-06T12:11:38;8.20;76.20
20492;DHT22;10404;51.468;6.762;2024-03-06T12:14:04;8.20;76.20
20492;DHT22;10404;51.468;6.762;2024-03-06T12:16:29;8.30;75.80
20492;DHT22;10404;51.468;6.762;2024-03-06T12:18:56;8.30;76.00
20492;DHT22;10404;51.468;6.762;2024-03-06T12:21:31;8.40;75.50
20492;DHT22;10404;51.468;6.762;2024-03-06T12:24:04;8.50;75.50
20492;DHT22;10404;51.468;6.762;2024-03-06T12:26:30;8.60;75.50
20492;DHT22;10404;51.468;6.762;2024-03-06T12:29:12;8.60;76.30
20492;DHT22;10404;51.468;6.762;2024-03-06T12:31:42;8.70;75.20
20492;DHT22;10404;51.468;6.762;2024-03-06T12:34:08;8.80;75.50
20492;DHT22;10404;51.468;6.762;2024-03-06T12:36:34;8.90;75.30
20492;DHT22;10404;51.468;6.762;2024-03-06T12:39:01;8.90;75.10
20492;DHT22;10404;51.468;6.762;2024-03-06T12:41:27;9.00;74.30
20492;DHT22;10404;51.468;6.762;2024-03-06T12:43:54;9.10;74.60
20492;DHT22;10404;51.468;6.762;2024-03-06T12:46:20;9.20;74.80
20492;DHT22;10404;51.468;6.762;2024-03-06T12:48:46;9.30;74.20
20492;DHT22;10404;51.468;6.762;2024-03-06T12:51:11;9.40;74.10
20492;DHT22;10404;51.468;6.762;2024-03-06T12:53:37;9.50;73.80
20492;DHT22;10404;51.468;6.762;2024-03-06T12:56:03;9.60;73.20
20492;DHT22;10404;51.468;6.762;2024-03-06T12:58:29;9.70;73.50
20492;DHT22;10404;51.468;6.762;2024-03-06T13:00:57;9.80;73.20
20492;DHT22;10404;51.468;6.762;2024-03-06T13:03:24;10.00;73.00
20492;DHT22;10404;51.468;6.762;2024-03-06T13:05:49;10.00;73.00
20492;DHT22;10404;51.468;6.762;2024-03-06T13:08:15;10.10;72.70
20492;DHT22;10404;51.468;6.762;2024-03-06T13:10:42;10.20;72.50
20492;DHT22;10404;51.468;6.762;2024-03-06T13:13:07;10.30;72.40
20492;DHT22;10404;51.468;6.762;2024-03-06T13:15:33;10.40;72.20
20492;DHT22;10404;51.468;6.762;2024-03-06T13:18:03;10.50;71.90
20492;DHT22;10404;51.468;6.762;2024-03-06T13:20:29;10.50;70.70
20492;DHT22;10404;51.468;6.762;2024-03-06T13:22:55;10.60;70.40
20492;DHT22;10404;51.468;6.762;2024-03-06T13:25:21;10.70;70.60
20492;DHT22;10404;51.468;6.762;2024-03-06T13:27:46;10.80;70.80
20492;DHT22;10404;51.468;6.762;2024-03-06T13:30:12;10.90;70.30
20492;DHT22;10404;51.468;6.762;2024-03-06T13:32:38;11.00;70.30
20492;DHT22;10404;51.468;6.762;2024-03-06T13:35:04;11.10;70.40
20492;DHT22;10404;51.468;6.762;2024-03-06T13:37:32;11.20;70.30
20492;DHT22;10404;51.468;6.762;2024-03-06T13:39:57;11.30;70.00
20492;DHT22;10404;51.468;6.762;2024-03-06T13:42:26;11.40;69.80
20492;DHT22;10404;51.468;6.762;2024-03-06T13:44:52;11.50;69.50
20492;DHT22;10404;51.468;6.762;2024-03-06T13:47:19;11.70;69.30
20492;DHT22;10404;51.468;6.762;2024-03-06T13:49:44;11.70;69.20
20492;DHT22;10404;51.468;6.762;2024-03-06T13:52:10;11.80;69.00
20492;DHT22;10404;51.468;6.762;2024-03-06T13:54:38;11.90;68.20
20492;DHT22;10404;51.468;6.762;2024-03-06T13:57:06;12.00;67.90
20492;DHT22;10404;51.468;6.762;2024-03-06T13:59:32;12.10;68.00
20492;DHT22;10404;51.468;6.762;2024-03-06T14:01:58;12.10;67.70
20492;DHT22;10404;51.468;6.762;2024-03-06T14:04:27;12.20;67.60
20492;DHT22;10404;51.468;6.762;2024-03-06T14:06:53;12.30;67.90
20492;DHT22;10404;51.468;6.762;2024-03-06T14:09:18;12.50;67.80
20492;DHT22;10404;51.468;6.762;2024-03-06T14:11:44;12.50;67.70
20492;DHT22;10404;51.468;6.762;2024-03-06T14:14:10;12.50;67.30
20492;DHT22;10404;51.468;6.762;2024-03-06T14:16:38;12.50;66.60
20492;DHT22;10404;51.468;6.762;2024-03-06T14:19:05;12.60;66.20
20492;DHT22;10404;51.468;6.762;2024-03-06T14:21:31;12.70;65.50
20492;DHT22;10404;51.468;6.762;2024-03-06T14:24:00;12.70;65.50
20492;DHT22;10404;51.468;6.762;2024-03-06T14:26:29;12.70;65.40
20492;DHT22;10404;51.468;6.762;2024-03-06T14:28:55;12.70;65.20
20492;DHT22;10404;51.468;6.762;2024-03-06T14:31:21;12.80;65.10
20492;DHT22;10404;51.468;6.762;2024-03-06T14:33:46;12.80;64.90
20492;DHT22;10404;51.468;6.762;2024-03-06T14:36:12;12.80;65.00
20492;DHT22;10404;51.468;6.762;2024-03-06T14:38:38;12.90;64.80
20492;DHT22;10404;51.468;6.762;2024-03-06T14:41:04;12.80;65.10
20492;DHT22;10404;51.468;6.762;2024-03-06T14:43:31;12.90;65.10
20492;DHT22;10404;51.468;6.762;2024-03-06T14:45:59;12.90;65.40
20492;DHT22;10404;51.468;6.762;2024-03-06T14:48:25;12.90;65.40
20492;DHT22;10404;51.468;6.762;2024-03-06T14:50:51;12.90;65.60
20492;DHT22;10404;51.468;6.762;2024-03-06T14:53:16;12.90;65.50
20492;DHT22;10404;51.468;6.762;2024-03-06T14:55:42;12.90;65.20
20492;DHT22;10404;51.468;6.762;2024-03-06T14:58:08;12.80;65.00
20492;DHT22;10404;51.468;6.762;2024-03-06T15:00:33;12.80;65.30
20492;DHT22;10404;51.468;6.762;2024-03-06T15:02:59;12.80;65.70
20492;DHT22;10404;51.468;6.762;2024-03-06T15:05:26;12.80;66.00
20492;DHT22;10404;51.468;6.762;2024-03-06T15:07:53;12.80;65.50
20492;DHT22;10404;51.468;6.762;2024-03-06T15:10:19;12.80;64.70
20492;DHT22;10404;51.468;6.762;2024-03-06T15:12:45;12.80;64.20
20492;DHT22;10404;51.468;6.762;2024-03-06T15:15:11;12.80;64.10
20492;DHT22;10404;51.468;6.762;2024-03-06T15:17:37;12.70;64.50
20492;DHT22;10404;51.468;6.762;2024-03-06T15:20:08;12.70;64.70
20492;DHT22;10404;51.468;6.762;2024-03-06T15:22:37;12.70;64.50
20492;DHT22;10404;51.468;6.762;2024-03-06T15:25:10;12.70;64.90
20492;DHT22;10404;51.468;6.762;2024-03-06T15:27:35;12.70;63.90
20492;DHT22;10404;51.468;6.762;2024-03-06T15:30:02;12.70;63.90
20492;DHT22;10404;51.468;6.762;2024-03-06T15:32:28;12.70;63.60
20492;DHT22;10404;51.468;6.762;2024-03-06T15:34:53;12.70;63.60
20492;DHT22;10404;51.468;6.762;2024-03-06T15:37:22;12.70;63.60
20492;DHT22;10404;51.468;6.762;2024-03-06T15:39:51;12.60;63.70